createdAt,value
2022-09-23T00:00:43.086Z,10.30
2022-09-23T00:01:46.520Z,10.29
2022-09-23T00:02:49.860Z,10.28
2022-09-23T00:03:51.726Z,10.28
2022-09-23T00:04:54.659Z,10.28
2022-09-23T00:06:00.608Z,10.27
2022-09-23T00:07:03.529Z,10.26
2022-09-23T00:08:06.500Z,10.24
2022-09-23T00:09:09.364Z,10.24
2022-09-23T00:10:11.174Z,10.23
2022-09-23T00:11:16.052Z,10.21
2022-09-23T00:12:18.167Z,10.21
2022-09-23T00:13:20.997Z,10.20
2022-09-23T00:14:22.893Z,10.19
2022-09-23T00:15:29.977Z,10.19
2022-09-23T00:16:34.573Z,10.19
2022-09-23T00:17:37.566Z,10.18
2022-09-23T00:18:39.800Z,10.17
2022-09-23T00:19:42.824Z,10.15
2022-09-23T00:20:44.769Z,10.15
2022-09-23T00:21:47.610Z,10.15
2022-09-23T00:22:49.366Z,10.14
2022-09-23T00:23:52.318Z,10.15
2022-09-23T00:24:54.121Z,10.14
2022-09-23T00:25:57.838Z,10.14
2022-09-23T00:26:59.955Z,10.12
2022-09-23T00:28:03.175Z,10.11
2022-09-23T00:29:05.070Z,10.13
2022-09-23T00:30:10.058Z,10.13
2022-09-23T00:31:15.278Z,10.13
2022-09-23T00:32:18.141Z,10.12
2022-09-23T00:33:20.097Z,10.11
2022-09-23T00:34:23.177Z,10.11
2022-09-23T00:35:24.980Z,10.11
2022-09-23T00:36:29.357Z,10.10
2022-09-23T00:37:31.544Z,10.10
2022-09-23T00:38:34.901Z,10.10
2022-09-23T00:39:36.724Z,10.10
2022-09-23T00:40:43.948Z,10.09
2022-09-23T00:41:45.852Z,10.09
2022-09-23T00:42:51.187Z,10.09
2022-09-23T00:43:54.706Z,10.07
2022-09-23T00:44:59.136Z,10.07
2022-09-23T00:46:01.066Z,10.06
2022-09-23T00:47:05.597Z,10.06
2022-09-23T00:48:14.714Z,10.05
2022-09-23T00:49:26.014Z,10.04
2022-09-23T00:50:31.313Z,10.03
2022-09-23T00:51:37.750Z,10.02
2022-09-23T00:52:39.690Z,10.01
2022-09-23T00:53:43.045Z,10.00
2022-09-23T00:54:46.273Z,9.99
2022-09-23T00:55:51.542Z,9.98
2022-09-23T00:56:54.315Z,9.98
2022-09-23T00:58:00.146Z,9.95
2022-09-23T00:59:03.043Z,9.93
2022-09-23T01:00:08.292Z,9.93
2022-09-23T01:01:12.101Z,9.92
2022-09-23T01:02:18.331Z,9.90
2022-09-23T01:03:22.889Z,9.88
2022-09-23T01:04:29.241Z,9.86
2022-09-23T01:05:31.239Z,9.84
2022-09-23T01:06:34.081Z,9.84
2022-09-23T01:07:36.052Z,9.84
2022-09-23T01:08:39.034Z,9.84
2022-09-23T01:09:41.257Z,9.83
2022-09-23T01:10:56.456Z,9.84
2022-09-23T01:12:10.434Z,9.83
2022-09-23T01:13:21.180Z,9.82
2022-09-23T01:14:36.953Z,9.83
2022-09-23T01:15:45.811Z,9.82
2022-09-23T01:16:54.478Z,9.83
2022-09-23T01:18:09.529Z,9.81
2022-09-23T01:19:34.311Z,9.80
2022-09-23T01:20:59.382Z,9.79
2022-09-23T01:22:10.695Z,9.78
2022-09-23T01:23:37.754Z,9.76
2022-09-23T01:24:48.987Z,9.75
2022-09-23T01:26:07.999Z,9.73
2022-09-23T01:27:25.196Z,9.73
2022-09-23T01:28:40.988Z,9.72
2022-09-23T01:30:06.664Z,9.71
2022-09-23T01:31:17.451Z,9.71
2022-09-23T01:32:31.251Z,9.68
2022-09-23T01:33:40.971Z,9.67
2022-09-23T01:34:49.853Z,9.68
2022-09-23T01:36:08.009Z,9.67
2022-09-23T01:37:14.152Z,9.68
2022-09-23T01:38:24.921Z,9.65
2022-09-23T01:39:35.216Z,9.64
2022-09-23T01:40:46.537Z,9.64
2022-09-23T01:41:59.944Z,9.65
2022-09-23T01:43:06.260Z,9.63
2022-09-23T01:44:12.486Z,9.62
2022-09-23T01:45:20.118Z,9.61
2022-09-23T01:46:31.632Z,9.60
2022-09-23T01:47:38.262Z,9.59
2022-09-23T01:48:47.667Z,9.56
2022-09-23T01:49:54.826Z,9.54
2022-09-23T01:51:04.536Z,9.53
2022-09-23T01:52:15.445Z,9.53
2022-09-23T01:53:24.542Z,9.51
2022-09-23T01:54:34.782Z,9.49
2022-09-23T01:55:40.319Z,9.48
2022-09-23T01:56:48.457Z,9.48
2022-09-23T01:57:55.472Z,9.48
2022-09-23T01:59:04.428Z,9.49
2022-09-23T02:00:10.472Z,9.48
2022-09-23T02:01:22.694Z,9.46
2022-09-23T02:02:32.794Z,9.45
2022-09-23T02:03:42.599Z,9.43
2022-09-23T02:04:48.032Z,9.43
2022-09-23T02:05:58.100Z,9.43
2022-09-23T02:07:03.559Z,9.42
2022-09-23T02:08:10.274Z,9.42
2022-09-23T02:09:15.815Z,9.43
2022-09-23T02:10:25.076Z,9.42
2022-09-23T02:11:27.544Z,9.41
2022-09-23T02:12:34.943Z,9.41
2022-09-23T02:13:41.175Z,9.39
2022-09-23T02:14:47.837Z,9.38
2022-09-23T02:15:53.828Z,9.37
2022-09-23T02:16:59.615Z,9.37
2022-09-23T02:18:08.719Z,9.36
2022-09-23T02:19:15.250Z,9.35
2022-09-23T02:20:22.014Z,9.34
2022-09-23T02:21:28.767Z,9.34
2022-09-23T02:22:39.323Z,9.32
2022-09-23T02:23:46.799Z,9.30
2022-09-23T02:24:49.328Z,9.29
2022-09-23T02:25:59.080Z,9.28
2022-09-23T02:27:13.246Z,9.27
2022-09-23T02:28:19.011Z,9.28
2022-09-23T02:29:26.854Z,9.27
2022-09-23T02:30:32.233Z,9.27
2022-09-23T02:31:41.484Z,9.27
2022-09-23T02:32:52.216Z,9.28
2022-09-23T02:34:01.426Z,9.27
2022-09-23T02:35:16.086Z,9.27
2022-09-23T02:36:26.641Z,9.26
2022-09-23T02:37:38.844Z,9.26
2022-09-23T02:38:45.115Z,9.25
2022-09-23T02:39:58.642Z,9.24
2022-09-23T02:41:09.432Z,9.23
2022-09-23T02:42:16.539Z,9.21
2022-09-23T02:43:27.883Z,9.22
2022-09-23T02:44:30.099Z,9.20
2022-09-23T02:45:33.714Z,9.20
2022-09-23T02:46:37.000Z,9.19
2022-09-23T02:47:44.992Z,9.17
2022-09-23T02:48:53.203Z,9.15
2022-09-23T02:49:57.361Z,9.14
2022-09-23T02:51:02.197Z,9.14
2022-09-23T02:52:07.666Z,9.13
2022-09-23T02:53:09.724Z,9.13
2022-09-23T02:54:15.914Z,9.12
2022-09-23T02:55:22.146Z,9.12
2022-09-23T02:56:25.831Z,9.12
2022-09-23T02:57:28.372Z,9.12
2022-09-23T02:58:31.332Z,9.11
2022-09-23T02:59:34.581Z,9.10
2022-09-23T03:00:54.509Z,9.10
2022-09-23T03:02:20.788Z,9.09
2022-09-23T03:03:41.822Z,9.09
2022-09-23T03:04:52.493Z,9.07
2022-09-23T03:05:59.851Z,9.07
2022-09-23T03:07:06.263Z,9.05
2022-09-23T03:08:25.988Z,9.06
2022-09-23T03:09:33.218Z,9.05
2022-09-23T03:10:44.852Z,9.05
2022-09-23T03:11:53.069Z,9.04
2022-09-23T03:13:07.002Z,9.03
2022-09-23T03:14:17.743Z,9.01
2022-09-23T03:15:27.809Z,9.00
2022-09-23T03:16:37.200Z,8.99
2022-09-23T03:17:48.053Z,8.97
2022-09-23T03:18:55.610Z,8.96
2022-09-23T03:20:04.729Z,8.94
2022-09-23T03:21:12.230Z,8.95
2022-09-23T03:22:20.052Z,8.94
2022-09-23T03:23:26.086Z,8.94
2022-09-23T03:24:32.204Z,8.92
2022-09-23T03:25:37.311Z,8.92
2022-09-23T03:26:44.464Z,8.91
2022-09-23T03:27:46.306Z,8.90
2022-09-23T03:28:51.267Z,8.90
2022-09-23T03:29:55.230Z,8.88
2022-09-23T03:31:00.996Z,8.89
2022-09-23T03:32:06.985Z,8.88
2022-09-23T03:33:16.661Z,8.88
2022-09-23T03:34:22.875Z,8.86
2022-09-23T03:35:28.897Z,8.86
2022-09-23T03:36:52.044Z,8.88
2022-09-23T03:38:02.620Z,8.85
2022-09-23T03:39:10.324Z,8.85
2022-09-23T03:40:17.233Z,8.84
2022-09-23T03:41:29.312Z,8.82
2022-09-23T03:42:34.266Z,8.83
2022-09-23T03:43:38.929Z,8.82
2022-09-23T03:44:45.373Z,8.81
2022-09-23T03:45:48.961Z,8.81
2022-09-23T03:46:50.836Z,8.79
2022-09-23T03:47:53.636Z,8.80
2022-09-23T03:48:59.847Z,8.80
2022-09-23T03:50:02.927Z,8.80
2022-09-23T03:51:19.156Z,8.80
2022-09-23T03:52:25.719Z,8.80
2022-09-23T03:53:28.913Z,8.78
2022-09-23T03:54:32.344Z,8.77
2022-09-23T03:55:34.753Z,8.76
2022-09-23T03:56:37.884Z,8.74
2022-09-23T03:57:39.762Z,8.71
2022-09-23T03:58:42.623Z,8.69
2022-09-23T03:59:44.486Z,8.69
2022-09-23T04:00:49.286Z,8.67
2022-09-23T04:01:58.521Z,8.68
2022-09-23T04:03:01.576Z,8.66
2022-09-23T04:04:03.399Z,8.66
2022-09-23T04:05:07.619Z,8.67
2022-09-23T04:06:09.835Z,8.66
2022-09-23T04:07:13.433Z,8.66
2022-09-23T04:08:16.636Z,8.66
2022-09-23T04:09:19.446Z,8.65
2022-09-23T04:10:21.284Z,8.65
2022-09-23T04:11:24.214Z,8.64
2022-09-23T04:12:26.042Z,8.60
2022-09-23T04:13:29.343Z,8.61
2022-09-23T04:14:31.268Z,8.60
2022-09-23T04:15:34.093Z,8.59
2022-09-23T04:16:36.020Z,8.59
2022-09-23T04:17:39.078Z,8.58
2022-09-23T04:18:41.123Z,8.59
2022-09-23T04:19:44.992Z,8.60
2022-09-23T04:20:47.045Z,8.59
2022-09-23T04:21:50.118Z,8.59
2022-09-23T04:22:51.988Z,8.59
2022-09-23T04:23:56.124Z,8.59
2022-09-23T04:24:57.960Z,8.60
2022-09-23T04:26:00.746Z,8.58
2022-09-23T04:27:02.814Z,8.57
2022-09-23T04:28:05.538Z,8.57
2022-09-23T04:29:08.176Z,8.56
2022-09-23T04:30:12.094Z,8.54
2022-09-23T04:31:14.152Z,8.54
2022-09-23T04:32:17.051Z,8.52
2022-09-23T04:33:19.169Z,8.51
2022-09-23T04:34:22.360Z,8.50
2022-09-23T04:35:24.302Z,8.50
2022-09-23T04:36:29.119Z,8.50
2022-09-23T04:37:30.910Z,8.48
2022-09-23T04:38:33.774Z,8.48
2022-09-23T04:39:37.029Z,8.48
2022-09-23T04:40:40.151Z,8.48
2022-09-23T04:41:42.305Z,8.48
2022-09-23T04:42:45.122Z,8.47
2022-09-23T04:43:47.248Z,8.47
2022-09-23T04:44:50.190Z,8.46
2022-09-23T04:45:59.525Z,8.46
2022-09-23T04:47:02.716Z,8.45
2022-09-23T04:48:04.667Z,8.45
2022-09-23T04:49:07.870Z,8.45
2022-09-23T04:50:10.142Z,8.44
2022-09-23T04:51:14.883Z,8.43
2022-09-23T04:52:16.922Z,8.43
2022-09-23T04:53:20.104Z,8.43
2022-09-23T04:54:23.015Z,8.42
2022-09-23T04:55:26.264Z,8.42
2022-09-23T04:56:32.564Z,8.42
2022-09-23T04:57:34.518Z,8.40
2022-09-23T04:58:37.719Z,8.40
2022-09-23T04:59:39.733Z,8.40
2022-09-23T05:00:42.622Z,8.39
2022-09-23T05:01:44.549Z,8.38
2022-09-23T05:02:49.608Z,8.37
2022-09-23T05:03:52.983Z,8.37
2022-09-23T05:04:55.850Z,8.36
2022-09-23T05:05:59.930Z,8.36
2022-09-23T05:07:03.608Z,8.35
2022-09-23T05:08:05.514Z,8.34
2022-09-23T05:09:09.382Z,8.35
2022-09-23T05:10:11.757Z,8.34
2022-09-23T05:11:15.953Z,8.34
2022-09-23T05:12:18.913Z,8.34
2022-09-23T05:13:20.742Z,8.34
2022-09-23T05:14:23.561Z,8.34
2022-09-23T05:15:25.397Z,8.33
2022-09-23T05:16:28.756Z,8.30
2022-09-23T05:17:31.202Z,8.30
2022-09-23T05:18:34.893Z,8.30
2022-09-23T05:19:37.698Z,8.29
2022-09-23T05:20:39.512Z,8.29
2022-09-23T05:21:42.683Z,8.28
2022-09-23T05:22:45.847Z,8.26
2022-09-23T05:23:49.723Z,8.29
2022-09-23T05:24:51.603Z,8.29
2022-09-23T05:25:59.017Z,8.32
2022-09-23T05:27:05.297Z,8.35
2022-09-23T05:28:07.102Z,8.38
2022-09-23T05:29:10.161Z,8.39
2022-09-23T05:30:12.517Z,8.41
2022-09-23T05:31:20.287Z,8.42
2022-09-23T05:32:23.635Z,8.42
2022-09-23T05:33:25.465Z,8.43
2022-09-23T05:34:28.412Z,8.42
2022-09-23T05:35:30.270Z,8.40
2022-09-23T05:36:38.363Z,8.39
2022-09-23T05:37:40.718Z,8.38
2022-09-23T05:38:43.641Z,8.36
2022-09-23T05:39:45.420Z,8.33
2022-09-23T05:40:48.275Z,8.31
2022-09-23T05:41:51.130Z,8.31
2022-09-23T05:42:54.394Z,8.29
2022-09-23T05:43:57.392Z,8.28
2022-09-23T05:44:59.246Z,8.31
2022-09-23T05:46:08.013Z,8.33
2022-09-23T05:47:10.280Z,8.39
2022-09-23T05:48:13.145Z,8.45
2022-09-23T05:49:14.943Z,8.51
2022-09-23T05:50:17.720Z,8.58
2022-09-23T05:51:21.429Z,8.67
2022-09-23T05:52:25.636Z,8.72
2022-09-23T05:53:29.294Z,8.78
2022-09-23T05:54:32.144Z,8.82
2022-09-23T05:55:35.014Z,8.89
2022-09-23T05:56:38.404Z,8.94
2022-09-23T05:57:40.294Z,9.00
2022-09-23T05:58:45.143Z,9.05
2022-09-23T05:59:48.376Z,9.09
2022-09-23T06:00:51.027Z,9.14
2022-09-23T06:01:56.497Z,9.18
2022-09-23T06:02:58.530Z,9.22
2022-09-23T06:04:02.647Z,9.27
2022-09-23T06:05:05.140Z,9.32
2022-09-23T06:06:08.690Z,9.36
2022-09-23T06:07:11.669Z,9.39
2022-09-23T06:08:13.652Z,9.43
2022-09-23T06:09:16.563Z,9.47
2022-09-23T06:10:18.381Z,9.50
2022-09-23T06:11:21.635Z,9.53
2022-09-23T06:12:25.076Z,9.55
2022-09-23T06:13:27.389Z,9.59
2022-09-23T06:14:31.581Z,9.62
2022-09-23T06:15:33.487Z,9.65
2022-09-23T06:16:36.931Z,9.68
2022-09-23T06:17:39.663Z,9.72
2022-09-23T06:18:42.790Z,9.74
2022-09-23T06:19:45.609Z,9.77
2022-09-23T06:20:47.992Z,9.80
2022-09-23T06:21:50.799Z,9.83
2022-09-23T06:22:55.542Z,9.86
2022-09-23T06:24:00.125Z,9.88
2022-09-23T06:25:02.053Z,9.91
2022-09-23T06:26:06.705Z,9.94
2022-09-23T06:27:09.638Z,9.97
2022-09-23T06:28:12.500Z,10.00
2022-09-23T06:29:15.412Z,10.03
2022-09-23T06:30:18.718Z,10.06
2022-09-23T06:31:21.537Z,10.09
2022-09-23T06:32:24.480Z,10.12
2022-09-23T06:33:35.726Z,10.16
2022-09-23T06:34:51.165Z,10.20
2022-09-23T06:35:59.894Z,10.23
2022-09-23T06:37:13.662Z,10.26
2022-09-23T06:38:18.917Z,10.31
2022-09-23T06:39:21.801Z,10.32
2022-09-23T06:40:25.244Z,10.35
2022-09-23T06:41:28.136Z,10.38
2022-09-23T06:42:34.095Z,10.42
2022-09-23T06:43:36.018Z,10.45
2022-09-23T06:44:39.132Z,10.49
2022-09-23T06:45:42.410Z,10.51
2022-09-23T06:46:45.303Z,10.54
2022-09-23T06:47:51.099Z,10.57
2022-09-23T06:48:52.974Z,10.61
2022-09-23T06:49:55.815Z,10.64
2022-09-23T06:51:02.403Z,10.66
2022-09-23T06:52:06.153Z,10.70
2022-09-23T06:53:08.219Z,10.71
2022-09-23T06:54:11.242Z,10.75
2022-09-23T06:55:13.236Z,10.76
2022-09-23T06:56:17.764Z,10.76
2022-09-23T06:57:20.586Z,10.79
2022-09-23T06:58:22.376Z,10.78
2022-09-23T06:59:25.311Z,10.80
2022-09-23T07:00:27.251Z,10.80
2022-09-23T07:01:31.542Z,10.81
2022-09-23T07:02:33.551Z,10.83
2022-09-23T07:03:37.091Z,10.83
2022-09-23T07:04:39.966Z,10.86
2022-09-23T07:05:42.176Z,10.87
2022-09-23T07:06:44.979Z,10.94
2022-09-23T07:07:46.870Z,10.93
2022-09-23T07:08:51.140Z,10.95
2022-09-23T07:09:52.951Z,10.96
2022-09-23T07:10:56.978Z,10.98
2022-09-23T07:11:59.753Z,11.00
2022-09-23T07:13:01.996Z,11.00
2022-09-23T07:14:04.810Z,11.01
2022-09-23T07:15:07.930Z,11.02
2022-09-23T07:16:12.127Z,11.02
2022-09-23T07:17:16.279Z,11.03
2022-09-23T07:18:18.230Z,11.04
2022-09-23T07:19:21.063Z,11.05
2022-09-23T07:20:23.331Z,11.05
2022-09-23T07:21:27.829Z,11.08
2022-09-23T07:22:29.632Z,11.10
2022-09-23T07:23:33.488Z,11.11
2022-09-23T07:24:36.253Z,11.13
2022-09-23T07:25:38.272Z,11.15
2022-09-23T07:26:45.452Z,11.16
2022-09-23T07:27:48.775Z,11.18
2022-09-23T07:28:56.836Z,11.19
2022-09-23T07:29:58.906Z,11.22
2022-09-23T07:31:07.038Z,11.24
2022-09-23T07:32:13.964Z,11.25
2022-09-23T07:33:30.830Z,11.27
2022-09-23T07:34:35.121Z,11.30
2022-09-23T07:35:39.798Z,11.32
2022-09-23T07:36:42.699Z,11.34
2022-09-23T07:37:46.180Z,11.39
2022-09-23T07:38:49.155Z,11.41
2022-09-23T07:39:52.173Z,11.41
2022-09-23T07:40:54.094Z,11.44
2022-09-23T07:41:56.949Z,11.46
2022-09-23T07:42:59.544Z,11.46
2022-09-23T07:44:03.400Z,11.48
2022-09-23T07:45:07.519Z,11.50
2022-09-23T07:46:12.608Z,11.51
2022-09-23T07:47:15.661Z,11.53
2022-09-23T07:48:19.832Z,11.55
2022-09-23T07:49:22.800Z,11.58
2022-09-23T07:50:24.710Z,11.61
2022-09-23T07:51:34.699Z,11.65
2022-09-23T07:52:38.382Z,11.69
2022-09-23T07:53:41.258Z,11.70
2022-09-23T07:54:44.105Z,11.72
2022-09-23T07:55:52.216Z,11.72
2022-09-23T07:56:55.068Z,11.73
2022-09-23T07:57:56.982Z,11.73
2022-09-23T07:59:04.028Z,11.73
2022-09-23T08:00:06.942Z,11.74
2022-09-23T08:01:14.660Z,11.76
2022-09-23T08:02:16.916Z,11.75
2022-09-23T08:03:21.945Z,11.75
2022-09-23T08:04:28.293Z,11.76
2022-09-23T08:05:30.243Z,11.77
2022-09-23T08:06:33.574Z,11.78
2022-09-23T08:07:35.465Z,11.79
2022-09-23T08:08:40.385Z,11.80
2022-09-23T08:09:44.749Z,11.81
2022-09-23T08:10:46.750Z,11.81
2022-09-23T08:11:50.677Z,11.82
2022-09-23T08:12:53.511Z,11.82
2022-09-23T08:13:55.990Z,11.81
2022-09-23T08:15:00.389Z,11.81
2022-09-23T08:16:02.718Z,11.80
2022-09-23T08:17:05.643Z,11.80
2022-09-23T08:18:07.474Z,11.82
2022-09-23T08:19:12.525Z,11.84
2022-09-23T08:20:34.462Z,11.86
2022-09-23T08:21:37.655Z,11.89
2022-09-23T08:22:39.555Z,11.92
2022-09-23T08:23:42.462Z,11.93
2022-09-23T08:24:45.326Z,11.98
2022-09-23T08:25:48.341Z,11.96
2022-09-23T08:26:53.347Z,11.96
2022-09-23T08:27:55.335Z,11.95
2022-09-23T08:28:58.260Z,11.95
2022-09-23T08:30:00.650Z,11.96
2022-09-23T08:31:03.579Z,11.98
2022-09-23T08:32:06.564Z,11.99
2022-09-23T08:33:08.462Z,12.01
2022-09-23T08:34:13.258Z,12.02
2022-09-23T08:35:15.470Z,12.03
2022-09-23T08:36:18.331Z,12.03
2022-09-23T08:37:20.379Z,12.05
2022-09-23T08:38:23.196Z,12.06
2022-09-23T08:39:26.100Z,12.07
2022-09-23T08:40:28.115Z,12.08
2022-09-23T08:41:40.801Z,12.10
2022-09-23T08:42:45.407Z,12.10
2022-09-23T08:43:51.142Z,12.11
2022-09-23T08:44:57.106Z,12.13
2022-09-23T08:46:05.166Z,12.13
2022-09-23T08:47:14.974Z,12.15
2022-09-23T08:48:23.315Z,12.16
2022-09-23T08:49:32.615Z,12.15
2022-09-23T08:50:42.338Z,12.17
2022-09-23T08:51:47.949Z,12.16
2022-09-23T08:52:54.929Z,12.18
2022-09-23T08:54:00.241Z,12.20
2022-09-23T08:55:04.438Z,12.21
2022-09-23T08:56:14.125Z,12.20
2022-09-23T08:57:39.489Z,12.21
2022-09-23T08:58:54.843Z,12.21
2022-09-23T08:59:57.673Z,12.22
2022-09-23T09:01:11.108Z,12.23
2022-09-23T09:02:18.040Z,12.23
2022-09-23T09:03:24.910Z,12.26
2022-09-23T09:04:39.830Z,12.26
2022-09-23T09:05:50.810Z,12.27
2022-09-23T09:07:24.563Z,12.29
2022-09-23T09:08:29.725Z,12.29
2022-09-23T09:09:41.769Z,12.30
2022-09-23T09:10:47.336Z,12.32
2022-09-23T09:11:54.111Z,12.35
2022-09-23T09:13:04.401Z,12.41
2022-09-23T09:14:18.434Z,12.42
2022-09-23T09:15:24.645Z,12.42
2022-09-23T09:16:59.594Z,12.42
2022-09-23T09:18:07.708Z,12.43
2022-09-23T09:19:16.528Z,12.42
2022-09-23T09:20:35.230Z,12.44
2022-09-23T09:21:42.497Z,12.43
2022-09-23T09:22:54.036Z,12.44
2022-09-23T09:23:57.855Z,12.44
2022-09-23T09:25:07.412Z,12.45
2022-09-23T09:26:22.463Z,12.44
2022-09-23T09:27:24.513Z,12.44
2022-09-23T09:28:33.919Z,12.44
2022-09-23T09:29:42.141Z,12.46
2022-09-23T09:30:48.524Z,12.47
2022-09-23T09:31:51.890Z,12.49
2022-09-23T09:33:01.050Z,12.49
2022-09-23T09:34:07.405Z,12.51
2022-09-23T09:35:22.623Z,12.51
2022-09-23T09:36:37.261Z,12.52
2022-09-23T09:37:46.789Z,12.53
2022-09-23T09:38:51.046Z,12.54
2022-09-23T09:39:52.966Z,12.55
2022-09-23T09:41:01.307Z,12.55
2022-09-23T09:42:06.489Z,12.57
2022-09-23T09:43:09.497Z,12.58
2022-09-23T09:44:24.184Z,12.61
2022-09-23T09:45:42.778Z,12.62
2022-09-23T09:46:55.304Z,12.63
2022-09-23T09:48:07.492Z,12.65
2022-09-23T09:49:14.529Z,12.69
2022-09-23T09:50:22.146Z,12.71
2022-09-23T09:51:25.521Z,12.70
2022-09-23T09:52:31.773Z,12.72
2022-09-23T09:53:35.740Z,12.72
2022-09-23T09:54:39.096Z,12.73
2022-09-23T09:55:42.797Z,12.74
2022-09-23T09:56:45.183Z,12.73
2022-09-23T09:57:53.596Z,12.74
2022-09-23T09:59:00.227Z,12.75
2022-09-23T10:00:20.639Z,12.78
2022-09-23T10:01:25.806Z,12.79
2022-09-23T10:02:30.969Z,12.82
2022-09-23T10:03:38.523Z,12.85
2022-09-23T10:04:42.255Z,12.87
2022-09-23T10:05:49.679Z,12.88
2022-09-23T10:07:08.152Z,12.88
2022-09-23T10:08:24.724Z,12.90
2022-09-23T10:09:33.520Z,12.89
2022-09-23T10:10:36.435Z,12.89
2022-09-23T10:11:40.437Z,12.91
2022-09-23T10:12:46.681Z,12.92
2022-09-23T10:14:05.372Z,12.92
2022-09-23T10:15:28.391Z,12.95
2022-09-23T10:16:32.416Z,12.97
2022-09-23T10:17:35.536Z,12.97
2022-09-23T10:18:39.282Z,12.99
2022-09-23T10:19:46.789Z,13.01
2022-09-23T10:20:49.175Z,13.03
2022-09-23T10:21:59.799Z,13.04
2022-09-23T10:23:07.140Z,13.03
2022-09-23T10:24:23.586Z,13.06
2022-09-23T10:25:27.573Z,13.07
2022-09-23T10:26:33.069Z,13.08
2022-09-23T10:27:38.726Z,13.10
2022-09-23T10:28:47.021Z,13.11
2022-09-23T10:29:52.270Z,13.14
2022-09-23T10:31:04.786Z,13.15
2022-09-23T10:32:28.366Z,13.16
2022-09-23T10:33:32.766Z,13.18
2022-09-23T10:34:35.940Z,13.18
2022-09-23T10:35:57.234Z,13.19
2022-09-23T10:37:05.089Z,13.18
2022-09-23T10:38:10.744Z,13.18
2022-09-23T10:39:32.630Z,13.18
2022-09-23T10:40:56.520Z,13.19
2022-09-23T10:42:22.439Z,13.21
2022-09-23T10:43:49.516Z,13.25
2022-09-23T10:45:32.493Z,13.27
2022-09-23T10:46:41.613Z,13.29
2022-09-23T10:47:54.940Z,13.33
2022-09-23T10:49:25.001Z,13.33
2022-09-23T10:50:38.368Z,13.34
2022-09-23T10:51:48.170Z,13.35
2022-09-23T10:53:05.446Z,13.37
2022-09-23T10:54:14.379Z,13.36
2022-09-23T10:55:34.722Z,13.38
2022-09-23T10:56:44.003Z,13.35
2022-09-23T10:58:05.156Z,13.36
2022-09-23T10:59:40.152Z,13.40
2022-09-23T11:00:52.082Z,13.43
2022-09-23T11:02:08.626Z,13.48
2022-09-23T11:03:42.959Z,13.53
2022-09-23T11:05:19.075Z,13.54
2022-09-23T11:06:31.954Z,13.58
2022-09-23T11:07:38.689Z,13.58
2022-09-23T11:08:57.739Z,13.58
2022-09-23T11:10:44.941Z,13.57
2022-09-23T11:12:03.562Z,13.58
2022-09-23T11:13:14.431Z,13.58
2022-09-23T11:14:34.050Z,13.60
2022-09-23T11:15:49.799Z,13.58
2022-09-23T11:17:14.593Z,13.58
2022-09-23T11:18:44.871Z,13.64
2022-09-23T11:20:06.016Z,13.66
2022-09-23T11:21:26.426Z,13.67
2022-09-23T11:22:46.122Z,13.68
2022-09-23T11:24:12.106Z,13.68
2022-09-23T11:25:30.203Z,13.68
2022-09-23T11:26:46.120Z,13.67
2022-09-23T11:28:09.796Z,13.67
2022-09-23T11:29:29.155Z,13.67
2022-09-23T11:30:43.949Z,13.68
2022-09-23T11:31:59.669Z,13.67
2022-09-23T11:33:18.372Z,13.68
2022-09-23T11:34:39.327Z,13.68
2022-09-23T11:35:49.138Z,13.70
2022-09-23T11:36:57.144Z,13.71
2022-09-23T11:38:07.242Z,13.71
2022-09-23T11:39:18.345Z,13.69
2022-09-23T11:40:27.763Z,13.69
2022-09-23T11:41:35.393Z,13.70
2022-09-23T11:42:46.888Z,13.70
2022-09-23T11:43:55.396Z,13.72
2022-09-23T11:45:01.244Z,13.74
2022-09-23T11:46:09.610Z,13.75
2022-09-23T11:47:22.145Z,13.76
2022-09-23T11:48:31.046Z,13.77
2022-09-23T11:49:39.257Z,13.79
2022-09-23T11:50:47.614Z,13.81
2022-09-23T11:52:03.568Z,13.81
2022-09-23T11:53:14.102Z,13.82
2022-09-23T11:54:21.135Z,13.83
2022-09-23T11:55:27.877Z,13.84
2022-09-23T11:56:36.357Z,13.85
2022-09-23T11:57:49.511Z,13.87
2022-09-23T11:59:02.266Z,13.88
2022-09-23T12:00:06.879Z,13.87
2022-09-23T12:01:14.559Z,13.89
2022-09-23T12:02:30.628Z,13.90
2022-09-23T12:03:44.754Z,13.92
2022-09-23T12:04:57.512Z,13.92
2022-09-23T12:06:05.165Z,13.91
2022-09-23T12:07:15.842Z,13.91
2022-09-23T12:08:25.494Z,13.93
2022-09-23T12:09:56.748Z,13.95
2022-09-23T12:11:06.075Z,13.98
2022-09-23T12:12:18.853Z,13.99
2022-09-23T12:13:29.734Z,13.99
2022-09-23T12:14:42.499Z,14.00
2022-09-23T12:16:01.963Z,14.03
2022-09-23T12:17:17.550Z,14.03
2022-09-23T12:18:37.346Z,14.05
2022-09-23T12:20:03.185Z,14.06
2022-09-23T12:21:48.636Z,14.06
2022-09-23T12:22:57.933Z,14.08
2022-09-23T12:24:19.251Z,14.09
2022-09-23T12:25:35.558Z,14.07
2022-09-23T12:26:39.738Z,14.07
2022-09-23T12:27:49.759Z,14.07
2022-09-23T12:28:56.281Z,14.09
2022-09-23T12:30:03.685Z,14.11
2022-09-23T12:31:12.534Z,14.11
2022-09-23T12:32:18.279Z,14.13
2022-09-23T12:33:24.825Z,14.12
2022-09-23T12:34:31.402Z,14.14
2022-09-23T12:35:41.260Z,14.15
2022-09-23T12:36:44.703Z,14.18
2022-09-23T12:37:47.752Z,14.20
2022-09-23T12:38:53.773Z,14.21
2022-09-23T12:40:02.091Z,14.22
2022-09-23T12:41:21.979Z,14.23
2022-09-23T12:42:26.661Z,14.21
2022-09-23T12:43:35.618Z,14.22
2022-09-23T12:44:41.877Z,14.21
2022-09-23T12:45:45.527Z,14.21
2022-09-23T12:46:49.459Z,14.24
2022-09-23T12:47:51.376Z,14.24
2022-09-23T12:49:05.064Z,14.24
2022-09-23T12:50:46.724Z,14.25
2022-09-23T12:52:15.418Z,14.23
2022-09-23T12:53:55.629Z,14.24
2022-09-23T12:54:59.774Z,14.24
2022-09-23T12:56:14.223Z,14.25
2022-09-23T12:57:43.607Z,14.26
2022-09-23T12:59:16.707Z,14.29
2022-09-23T13:00:26.938Z,14.28
2022-09-23T13:01:37.758Z,14.32
2022-09-23T13:02:43.936Z,14.35
2022-09-23T13:04:05.274Z,14.33
2022-09-23T13:05:39.416Z,14.35
2022-09-23T13:06:44.063Z,14.40
2022-09-23T13:07:50.230Z,14.41
2022-09-23T13:08:54.224Z,14.43
2022-09-23T13:10:10.238Z,14.44
2022-09-23T13:11:23.740Z,14.44
2022-09-23T13:12:33.833Z,14.44
2022-09-23T13:13:40.957Z,14.44
2022-09-23T13:14:45.563Z,14.43
2022-09-23T13:15:50.299Z,14.45
2022-09-23T13:16:53.312Z,14.44
2022-09-23T13:18:25.288Z,14.43
2022-09-23T13:19:47.213Z,14.42
2022-09-23T13:20:51.456Z,14.41
2022-09-23T13:22:09.280Z,14.40
2022-09-23T13:23:22.415Z,14.42
2022-09-23T13:24:46.378Z,14.43
2022-09-23T13:25:51.505Z,14.43
2022-09-23T13:26:57.466Z,14.44
2022-09-23T13:28:04.180Z,14.42
2022-09-23T13:29:17.335Z,14.43
2022-09-23T13:30:26.120Z,14.42
2022-09-23T13:31:28.708Z,14.43
2022-09-23T13:32:34.375Z,14.42
2022-09-23T13:33:45.836Z,14.41
2022-09-23T13:34:59.054Z,14.44
2022-09-23T13:36:05.964Z,14.43
2022-09-23T13:37:22.897Z,14.45
2022-09-23T13:38:29.753Z,14.46
2022-09-23T13:39:31.969Z,14.48
2022-09-23T13:40:36.285Z,14.47
2022-09-23T13:41:38.576Z,14.49
2022-09-23T13:42:42.390Z,14.48
2022-09-23T13:43:49.139Z,14.48
2022-09-23T13:44:57.485Z,14.47
2022-09-23T13:46:05.361Z,14.49
2022-09-23T13:47:14.698Z,14.48
2022-09-23T13:48:18.185Z,14.48
2022-09-23T13:49:24.431Z,14.48
2022-09-23T13:50:34.143Z,14.50
2022-09-23T13:51:38.154Z,14.52
2022-09-23T13:52:40.316Z,14.53
2022-09-23T13:53:43.224Z,14.53
2022-09-23T13:54:48.983Z,14.55
2022-09-23T13:56:01.616Z,14.57
2022-09-23T13:57:04.951Z,14.58
2022-09-23T13:58:17.332Z,14.59
2022-09-23T13:59:26.518Z,14.61
2022-09-23T14:00:35.550Z,14.63
2022-09-23T14:01:38.637Z,14.64
2022-09-23T14:02:42.801Z,14.64
2022-09-23T14:03:45.882Z,14.64
2022-09-23T14:04:50.081Z,14.63
2022-09-23T14:05:54.271Z,14.61
2022-09-23T14:06:57.737Z,14.61
2022-09-23T14:08:00.326Z,14.61
2022-09-23T14:09:03.966Z,14.60
2022-09-23T14:10:08.172Z,14.60
2022-09-23T14:11:16.601Z,14.59
2022-09-23T14:12:22.366Z,14.60
2022-09-23T14:13:28.639Z,14.61
2022-09-23T14:14:32.671Z,14.62
2022-09-23T14:15:37.530Z,14.61
2022-09-23T14:16:42.397Z,14.62
2022-09-23T14:17:47.501Z,14.62
2022-09-23T14:18:53.164Z,14.61
2022-09-23T14:19:55.228Z,14.62
2022-09-23T14:20:58.228Z,14.62
2022-09-23T14:22:00.467Z,14.63
2022-09-23T14:23:07.561Z,14.63
2022-09-23T14:24:18.423Z,14.63
2022-09-23T14:25:21.867Z,14.65
2022-09-23T14:26:25.619Z,14.66
2022-09-23T14:27:30.008Z,14.66
2022-09-23T14:28:33.279Z,14.67
2022-09-23T14:29:37.723Z,14.67
2022-09-23T14:30:43.089Z,14.68
2022-09-23T14:31:57.678Z,14.68
2022-09-23T14:33:00.075Z,14.68
2022-09-23T14:34:03.143Z,14.68
2022-09-23T14:35:18.780Z,14.67
2022-09-23T14:36:40.291Z,14.66
2022-09-23T14:38:09.414Z,14.66
2022-09-23T14:39:13.895Z,14.70
2022-09-23T14:40:18.069Z,14.67
2022-09-23T14:41:24.863Z,14.70